Time;durP1;ratioP1;P1;durP2;ratioP2;P2;SDS_P1;SDS_P2;PMS_P1;PMS_P2;Temp;Humidity;BMP_temperature;BMP_pressure;BME280_temperature;BME280_humidity;BME280_pressure;Samples;Min_cycle;Max_cycle;Signal;HPM_P1;HPM_P2
2022/06/11 00:00:10;;;;;;;;;;;;;;;15.50;100.00;-25503.19;5058679;28;19989;-80
2022/06/11 00:02:36;;;;;;;;;;;;;;;15.54;100.00;-25504.34;5054524;28;20293;-76
2022/06/11 00:05:03;;;;;;;;;;;;;;;15.50;100.00;-25503.19;5074320;28;19920;-76
2022/06/11 00:07:28;;;;;;;;;;;;;;;15.50;100.00;-25503.31;5074406;28;20325;-78
2022/06/11 00:09:53;;;;;;;;;;;;;;;15.45;100.00;-25501.88;5072935;28;19946;-77
2022/06/11 00:12:20;;;;;;;;;;;;;;;15.40;100.00;-25500.56;5070296;28;19913;-78
2022/06/11 00:14:48;;;;;;;;;;;;;;;15.47;100.00;-25502.44;5071831;28;19920;-77
2022/06/11 00:17:14;;;;;;;;;;;;;;;15.44;100.00;-25501.56;5069570;28;19952;-77
2022/06/11 00:19:41;;;;;;;;;;;;;;;15.39;100.00;-25500.25;5053684;28;19964;-78
2022/06/11 00:22:06;;;;;;;;;;;;;;;15.38;100.00;-25499.81;5054094;28;19935;-78
2022/06/11 00:24:32;;;;;;;;;;;;;;;15.43;100.00;-25501.44;5054158;28;19913;-74
2022/06/11 00:26:58;;;;;;;;;;;;;;;15.51;100.00;-25503.63;5060680;28;19959;-78
2022/06/11 00:29:25;;;;;;;;;;;;;;;15.48;100.00;-25502.75;5066643;28;20015;-78
2022/06/11 00:31:50;;;;;;;;;;;;;;;15.44;100.00;-25501.72;5057229;28;19970;-79
2022/06/11 00:34:17;;;;;;;;;;;;;;;15.39;100.00;-25500.25;5068977;28;19917;-78
2022/06/11 00:36:44;;;;;;;;;;;;;;;15.36;100.00;-25499.41;5047099;28;19970;-78
2022/06/11 00:39:11;;;;;;;;;;;;;;;15.35;100.00;-25498.97;5054433;28;19920;-77
2022/06/11 00:41:38;;;;;;;;;;;;;;;15.31;100.00;-25497.94;5064549;28;19921;-75
2022/06/11 00:44:06;;;;;;;;;;;;;;;15.27;100.00;-25496.78;5062892;28;19920;-78
2022/06/11 00:46:53;;;;;;;;;;;;;;;15.28;100.00;-25497.06;5072614;28;19961;-80
2022/06/11 00:49:22;;;;;;;;;;;;;;;15.33;100.00;-25498.53;5060304;28;19923;-78
2022/06/11 00:51:51;;;;;;;;;;;;;;;15.30;100.00;-25497.66;5070266;28;19921;-79
2022/06/11 00:54:21;;;;;;;;;;;;;;;15.27;100.00;-25496.78;5054469;28;19920;-78
2022/06/11 00:56:49;;;;;;;;;;;;;;;15.25;100.00;-25496.19;5058530;28;19921;-78
2022/06/11 00:59:17;;;;;;;;;;;;;;;15.26;100.00;-25496.50;5043556;28;19924;-78
2022/06/11 01:01:43;;;;;;;;;;;;;;;15.23;100.00;-25495.63;5064813;28;20368;-79
2022/06/11 01:04:34;;;;;;;;;;;;;;;15.24;100.00;-25495.91;5057563;28;20004;-80
2022/06/11 01:07:35;;;;;;;;;;;;;;;15.17;100.00;-25493.88;5035044;28;19931;-79
2022/06/11 01:10:14;;;;;;;;;;;;;;;15.14;100.00;-25493.00;4994636;28;19961;-79
2022/06/11 01:12:47;;;;;;;;;;;;;;;15.17;100.00;-25494.00;5046026;28;19960;-80
2022/06/11 01:15:28;;;;;;;;;;;;;;;15.17;100.00;-25493.88;5051525;28;20011;-79
2022/06/11 01:17:53;;;;;;;;;;;;;;;15.24;100.00;-25496.06;5057664;28;19965;-80
2022/06/11 01:20:18;;;;;;;;;;;;;;;15.30;100.00;-25497.66;5057049;28;19999;-79
2022/06/11 01:23:03;;;;;;;;;;;;;;;15.32;100.00;-25498.09;5066150;28;20078;-79
2022/06/11 01:25:32;;;;;;;;;;;;;;;15.35;100.00;-25498.97;5065848;28;20333;-76
2022/06/11 01:27:57;;;;;;;;;;;;;;;15.36;100.00;-25499.25;5067776;28;19920;-76
2022/06/11 01:30:24;;;;;;;;;;;;;;;15.30;100.00;-25497.50;5057312;28;19928;-75
2022/06/11 01:32:59;;;;;;;;;;;;;;;15.24;100.00;-25495.91;5060827;28;20405;-75
2022/06/11 01:35:27;;;;;;;;;;;;;;;15.16;100.00;-25493.56;5073121;28;19966;-74
2022/06/11 01:38:06;;;;;;;;;;;;;;;15.15;100.00;-25493.44;5055299;28;19964;-74
2022/06/11 01:40:50;;;;;;;;;;;;;;;15.12;100.00;-25492.41;5052229;28;19936;-75
2022/06/11 01:43:19;;;;;;;;;;;;;;;15.14;100.00;-25493.00;5052287;28;19924;-74
2022/06/11 01:45:45;;;;;;;;;;;;;;;15.21;100.00;-25495.19;5053599;28;19935;-76
2022/06/11 01:48:14;;;;;;;;;;;;;;;15.22;100.00;-25495.31;5066064;28;19920;-78
2022/06/11 01:50:41;;;;;;;;;;;;;;;15.19;100.00;-25494.44;5072950;28;20416;-77
2022/06/11 01:53:19;;;;;;;;;;;;;;;15.22;100.00;-25495.47;5052991;28;20010;-77
2022/06/11 01:56:05;;;;;;;;;;;;;;;15.22;100.00;-25495.31;5058361;28;20056;-75
2022/06/11 01:58:30;;;;;;;;;;;;;;;15.20;100.00;-25494.88;5037183;28;19944;-77
2022/06/11 02:01:02;;;;;;;;;;;;;;;15.15;100.00;-25493.28;5054207;28;20380;-76
2022/06/11 02:03:34;;;;;;;;;;;;;;;15.10;100.00;-25491.97;5052312;28;19917;-80
2022/06/11 02:06:03;;;;;;;;;;;;;;;15.03;100.00;-25490.09;5054311;28;19921;-80
2022/06/11 02:08:31;;;;;;;;;;;;;;;15.07;100.00;-25491.09;5053762;28;19917;-77
2022/06/11 02:11:02;;;;;;;;;;;;;;;14.98;100.00;-25488.47;5052006;28;20502;-76
2022/06/11 02:13:32;;;;;;;;;;;;;;;14.96;100.00;-25488.03;5053173;28;19913;-78
2022/06/11 02:16:12;;;;;;;;;;;;;;;14.98;100.00;-25488.47;5040534;28;20581;-77
2022/06/11 02:18:38;;;;;;;;;;;;;;;14.94;100.00;-25487.47;5057153;28;19921;-76
2022/06/11 02:21:06;;;;;;;;;;;;;;;14.96;100.00;-25488.03;5052514;28;19924;-77
2022/06/11 02:23:35;;;;;;;;;;;;;;;14.96;100.00;-25488.03;5047843;28;19912;-79
2022/06/11 02:26:05;;;;;;;;;;;;;;;14.97;100.00;-25488.34;5061756;28;19921;-76
2022/06/11 02:28:33;;;;;;;;;;;;;;;14.96;100.00;-25488.03;5053558;28;20359;-76
2022/06/11 02:31:02;;;;;;;;;;;;;;;14.96;100.00;-25487.91;5057403;28;19916;-75
2022/06/11 02:33:29;;;;;;;;;;;;;;;14.88;100.00;-25485.88;5035277;28;19921;-77
2022/06/11 02:35:58;;;;;;;;;;;;;;;14.86;100.00;-25485.13;5051944;28;19928;-78
2022/06/11 02:38:26;;;;;;;;;;;;;;;14.76;100.00;-25482.22;5052297;28;19921;-76
2022/06/11 02:40:57;;;;;;;;;;;;;;;14.77;100.00;-25482.50;5052646;28;19971;-79
2022/06/11 02:43:22;;;;;;;;;;;;;;;14.75;100.00;-25481.94;5053096;28;20020;-79
2022/06/11 02:45:48;;;;;;;;;;;;;;;14.74;100.00;-25481.63;5051990;28;19953;-79
2022/06/11 02:48:13;;;;;;;;;;;;;;;14.71;100.00;-25480.91;5049461;28;19924;-78
2022/06/11 02:50:39;;;;;;;;;;;;;;;14.68;100.00;-25480.19;5052702;28;19944;-79
2022/06/11 02:53:12;;;;;;;;;;;;;;;14.69;100.00;-25480.47;5055217;28;20309;-79
2022/06/11 02:55:39;;;;;;;;;;;;;;;14.66;100.00;-25479.59;5051862;28;19924;-79
2022/06/11 02:58:06;;;;;;;;;;;;;;;14.64;100.00;-25478.88;5033341;28;19921;-79
2022/06/11 03:00:33;;;;;;;;;;;;;;;14.61;100.00;-25478.16;5041086;28;20253;-76
2022/06/11 03:03:00;;;;;;;;;;;;;;;14.57;100.00;-25476.81;5053017;28;19923;-78
2022/06/11 03:05:28;;;;;;;;;;;;;;;14.55;100.00;-25476.38;5053087;28;19924;-78
2022/06/11 03:07:54;;;;;;;;;;;;;;;14.51;100.00;-25475.38;5053026;28;19992;-80
2022/06/11 03:10:22;;;;;;;;;;;;;;;14.46;100.00;-25473.75;5054307;28;19939;-79
2022/06/11 03:12:48;;;;;;;;;;;;;;;14.45;100.00;-25473.47;5053199;28;19917;-79
2022/06/11 03:15:15;;;;;;;;;;;;;;;14.43;100.00;-25472.91;5035873;28;20487;-79
2022/06/11 03:17:41;;;;;;;;;;;;;;;14.34;100.00;-25470.56;5052339;28;19924;-78
2022/06/11 03:20:07;;;;;;;;;;;;;;;14.36;100.00;-25471.16;5051402;28;19921;-79
2022/06/11 03:22:33;;;;;;;;;;;;;;;14.32;100.00;-25469.97;5050738;28;19924;-78
2022/06/11 03:24:58;;;;;;;;;;;;;;;14.31;100.00;-25469.53;5051345;28;19925;-79
2022/06/11 03:27:23;;;;;;;;;;;;;;;14.27;100.00;-25468.53;5051632;28;19921;-77
2022/06/11 03:29:49;;;;;;;;;;;;;;;14.30;100.00;-25469.41;5050426;28;19943;-79
2022/06/11 03:32:14;;;;;;;;;;;;;;;14.33;100.00;-25470.13;5051997;28;19960;-79
2022/06/11 03:34:41;;;;;;;;;;;;;;;14.35;100.00;-25470.84;5052006;28;20292;-75
2022/06/11 03:37:07;;;;;;;;;;;;;;;14.31;100.00;-25469.69;5056537;28;19927;-80
2022/06/11 03:39:32;;;;;;;;;;;;;;;14.29;100.00;-25469.09;5068659;28;20343;-78
2022/06/11 03:41:58;;;;;;;;;;;;;;;14.32;100.00;-25469.97;5071386;28;19921;-78
2022/06/11 03:44:24;;;;;;;;;;;;;;;14.41;100.00;-25472.31;5059743;28;19917;-79
2022/06/11 03:46:51;;;;;;;;;;;;;;;14.46;100.00;-25473.75;5053607;28;20285;-75
2022/06/11 03:49:17;;;;;;;;;;;;;;;14.45;100.00;-25473.47;5054934;28;20065;-79
2022/06/11 03:51:42;;;;;;;;;;;;;;;14.49;100.00;-25474.63;5071889;28;19931;-76
2022/06/11 03:54:15;;;;;;;;;;;;;;;14.49;100.00;-25474.78;5053912;28;20368;-77
2022/06/11 03:56:40;;;;;;;;;;;;;;;14.56;100.00;-25476.69;5048879;28;20434;-77
2022/06/11 03:59:06;;;;;;;;;;;;;;;14.83;100.00;-25484.41;5034167;28;19917;-76
2022/06/11 04:01:32;;;;;;;;;;;;;;;15.50;100.00;-25503.31;5041691;28;19916;-77
2022/06/11 04:04:00;;;;;;;;;;;;;;;15.73;100.00;-25509.88;5060327;28;19967;-77
2022/06/11 04:06:37;;;;;;;;;;;;;;;16.28;100.00;-25525.41;5065573;28;19912;-76
2022/06/11 04:09:05;;;;;;;;;;;;;;;16.84;100.00;-25541.25;5070667;28;19943;-76
2022/06/11 04:11:30;;;;;;;;;;;;;;;17.64;100.00;-25563.56;5051299;28;20007;-79
2022/06/11 04:13:55;;;;;;;;;;;;;;;18.29;100.00;-25581.97;5070620;28;20474;-75
2022/06/11 04:16:47;;;;;;;;;;;;;;;18.53;100.00;-17646.69;5070999;28;20395;-77
2022/06/11 04:19:14;;;;;;;;;;;;;;;19.00;100.00;-6369.06;5051899;28;19930;-76
2022/06/11 04:21:39;;;;;;;;;;;;;;;18.80;100.00;6945.50;5017616;28;20024;-74
2022/06/11 04:24:06;;;;;;;;;;;;;;;19.30;100.00;19658.66;5032993;28;20034;-76
2022/06/11 04:26:39;;;;;;;;;;;;;;;18.46;100.00;27320.63;5046109;28;20396;-75
2022/06/11 04:29:05;;;;;;;;;;;;;;;18.21;100.00;21617.72;5034042;28;19928;-76
2022/06/11 04:31:31;;;;;;;;;;;;;;;18.62;100.00;12946.22;5044042;28;20031;-73
2022/06/11 04:33:57;;;;;;;;;;;;;;;19.31;100.00;14640.38;5045418;28;20020;-73
2022/06/11 04:36:23;;;;;;;;;;;;;;;20.61;100.00;28784.38;5037925;28;19921;-75
2022/06/11 04:38:49;;;;;;;;;;;;;;;21.19;100.00;86115.28;5053580;28;20257;-75
2022/06/11 04:41:14;;;;;;;;;;;;;;;22.07;100.00;148268.63;5055683;28;19929;-75
2022/06/11 04:43:41;;;;;;;;;;;;;;;22.72;100.00;148430.31;5054282;28;20396;-78
2022/06/11 04:46:07;;;;;;;;;;;;;;;22.53;100.00;148382.84;5052946;28;19913;-77
2022/06/11 04:48:32;;;;;;;;;;;;;;;22.62;100.00;148404.63;5053319;28;19921;-78
2022/06/11 04:50:59;;;;;;;;;;;;;;;22.92;100.00;148480.38;5053973;28;19963;-76
2022/06/11 04:53:24;;;;;;;;;;;;;;;23.15;100.00;148538.16;5052709;28;20011;-75
2022/06/11 04:55:49;;;;;;;;;;;;;;;22.80;100.00;148449.56;5052972;28;20007;-76
2022/06/11 04:58:15;;;;;;;;;;;;;;;22.29;100.00;148323.75;5037433;28;20376;-77
2022/06/11 05:00:40;;;;;;;;;;;;;;;22.37;100.00;148344.38;5052845;28;19921;-77
2022/06/11 05:03:05;;;;;;;;;;;;;;;23.58;100.00;148644.69;5053245;28;19916;-74
2022/06/11 05:05:31;;;;;;;;;;;;;;;23.10;100.00;148525.31;5054471;28;19925;-76
2022/06/11 05:07:57;;;;;;;;;;;;;;;21.93;100.00;148234.00;5052736;28;19943;-77
2022/06/11 05:10:23;;;;;;;;;;;;;;;23.37;100.00;148592.03;5061159;28;19963;-77
2022/06/11 05:12:49;;;;;;;;;;;;;;;23.98;100.00;148746.16;5052529;28;19920;-73
2022/06/11 05:15:14;;;;;;;;;;;;;;;23.48;100.00;148620.31;5051550;28;20293;-77
2022/06/11 05:17:39;;;;;;;;;;;;;;;21.58;100.00;148145.50;5052398;28;20151;-78
2022/06/11 05:20:06;;;;;;;;;;;;;;;21.49;100.00;148123.75;5053755;28;19925;-75
2022/06/11 05:22:33;;;;;;;;;;;;;;;21.08;100.00;148021.13;5050496;28;19921;-76
2022/06/11 05:24:58;;;;;;;;;;;;;;;20.86;100.00;147966.03;5049202;28;19972;-76
2022/06/11 05:27:25;;;;;;;;;;;;;;;20.52;100.00;147882.66;5032826;28;19921;-77
2022/06/11 05:29:56;;;;;;;;;;;;;;;19.72;100.00;147684.09;5032930;28;20274;-74
2022/06/11 05:32:26;;;;;;;;;;;;;;;19.17;100.00;147545.81;5048170;28;19921;-76
2022/06/11 05:34:53;;;;;;;;;;;;;;;18.58;100.00;147399.94;5052429;28;19917;-75
2022/06/11 05:37:18;;;;;;;;;;;;;;;18.74;100.00;147438.31;5043009;28;20415;-79
2022/06/11 05:39:46;;;;;;;;;;;;;;;19.12;100.00;147533.03;5054210;28;19925;-78
2022/06/11 05:42:12;;;;;;;;;;;;;;;19.81;100.00;147704.63;5054767;28;20262;-79
2022/06/11 05:44:38;;;;;;;;;;;;;;;20.03;100.00;147759.72;5052742;28;19917;-75
2022/06/11 05:47:04;;;;;;;;;;;;;;;19.69;100.00;147675.16;5049849;28;19917;-75
2022/06/11 05:49:33;;;;;;;;;;;;;;;19.71;100.00;147681.53;5049715;28;19972;-75
2022/06/11 05:52:01;;;;;;;;;;;;;;;19.25;100.00;147566.34;5040332;28;19982;-76
2022/06/11 05:54:30;;;;;;;;;;;;;;;18.86;100.00;147467.75;5049362;28;19921;-75
2022/06/11 05:56:55;;;;;;;;;;;;;;;18.83;100.00;147461.28;5062875;28;19981;-79
2022/06/11 05:59:23;;;;;;;;;;;;;;;18.61;100.00;147407.59;5053068;28;20357;-75
2022/06/11 06:01:50;;;;;;;;;;;;;;;18.74;100.00;147438.31;5042419;28;19917;-79
2022/06/11 06:04:16;;;;;;;;;;;;;;;18.48;100.00;147374.31;5045386;28;19917;-78
2022/06/11 06:06:41;;;;;;;;;;;;;;;18.41;100.00;147356.38;5053145;28;19921;-77
2022/06/11 06:09:07;;;;;;;;;;;;;;;18.56;100.00;147394.78;5051272;28;19928;-76
2022/06/11 06:11:33;;;;;;;;;;;;;;;18.60;100.00;147405.03;5049316;28;19927;-74
2022/06/11 06:13:59;;;;;;;;;;;;;;;18.55;100.00;147392.25;5039965;28;19920;-76
2022/06/11 06:16:26;;;;;;;;;;;;;;;18.90;100.00;147479.28;5069058;28;19924;-75
2022/06/11 06:18:52;;;;;;;;;;;;;;;19.18;100.00;147549.66;5051068;28;19929;-75
2022/06/11 06:21:19;;;;;;;;;;;;;;;19.10;100.00;147529.19;5051433;28;20365;-76
2022/06/11 06:23:44;;;;;;;;;;;;;;;18.87;100.00;147470.34;5048815;28;19986;-75
2022/06/11 06:26:09;;;;;;;;;;;;;;;18.75;100.00;147440.84;5053454;28;20466;-74
2022/06/11 06:28:35;;;;;;;;;;;;;;;18.87;100.00;147471.59;5051575;28;20007;-78
2022/06/11 06:31:01;;;;;;;;;;;;;;;18.74;100.00;147438.31;5051647;28;19923;-77
2022/06/11 06:33:30;;;;;;;;;;;;;;;18.73;100.00;147435.72;5052389;28;20360;-75
2022/06/11 06:35:56;;;;;;;;;;;;;;;18.64;100.00;147413.97;5051068;28;20008;-77
2022/06/11 06:38:22;;;;;;;;;;;;;;;18.77;100.00;147446.00;5050716;28;20020;-76
2022/06/11 06:40:48;;;;;;;;;;;;;;;18.98;100.00;147499.75;5051570;28;19916;-78
2022/06/11 06:43:13;;;;;;;;;;;;;;;19.03;100.00;147511.25;5051388;28;19917;-75
2022/06/11 06:45:38;;;;;;;;;;;;;;;19.26;100.00;147567.59;5050386;28;20043;-76
2022/06/11 06:48:04;;;;;;;;;;;;;;;19.14;100.00;147538.16;5051887;28;19925;-76
2022/06/11 06:50:29;;;;;;;;;;;;;;;19.28;100.00;147574.03;5050776;28;20355;-75
2022/06/11 06:52:56;;;;;;;;;;;;;;;19.32;100.00;147584.22;5051326;28;20452;-75
2022/06/11 06:55:21;;;;;;;;;;;;;;;19.56;100.00;147643.16;5051186;28;19967;-76
2022/06/11 06:57:46;;;;;;;;;;;;;;;19.87;100.00;147720.00;5050480;28;19955;-77
2022/06/11 07:00:12;;;;;;;;;;;;;;;19.53;100.00;147635.47;5049325;28;20377;-77
2022/06/11 07:02:38;;;;;;;;;;;;;;;19.45;100.00;147616.28;5050862;28;20391;-75
2022/06/11 07:05:03;;;;;;;;;;;;;;;19.90;100.00;147727.69;5051183;28;19921;-77
2022/06/11 07:07:28;;;;;;;;;;;;;;;21.10;100.00;148027.53;5050340;28;19923;-77
2022/06/11 07:09:55;;;;;;;;;;;;;;;22.10;100.00;148275.06;5051104;28;20035;-76
2022/06/11 07:12:20;;;;;;;;;;;;;;;23.18;100.00;148544.56;5051437;28;19952;-76
2022/06/11 07:14:48;;;;;;;;;;;;;;;23.82;100.00;148705.06;5049874;28;20021;-76
2022/06/11 07:17:14;;;;;;;;;;;;;;;23.76;100.00;148689.66;5050694;28;19920;-76
2022/06/11 07:19:45;;;;;;;;;;;;;;;24.31;100.00;148828.34;5048529;28;20013;-76
2022/06/11 07:22:20;;;;;;;;;;;;;;;25.05;100.00;149012.16;5050338;28;19917;-76
2022/06/11 07:24:46;;;;;;;;;;;;;;;24.27;100.00;148818.09;5048498;28;19967;-76
2022/06/11 07:27:14;;;;;;;;;;;;;;;24.67;100.00;148917.03;5048578;28;20331;-77
2022/06/11 07:30:00;;;;;;;;;;;;;;;24.98;100.00;148995.41;5049801;28;19912;-77
2022/06/11 07:32:26;;;;;;;;;;;;;;;24.94;100.00;148983.84;5048652;28;19970;-75
2022/06/11 07:34:52;;;;;;;;;;;;;;;25.25;100.00;149063.53;5048550;28;19917;-75
2022/06/11 07:37:18;;;;;;;;;;;;;;;25.60;100.00;149149.69;5052484;28;19944;-73
2022/06/11 07:39:44;;;;;;;;;;;;;;;25.65;100.00;149161.28;5064109;28;20305;-75
2022/06/11 07:42:10;;;;;;;;;;;;;;;26.05;100.00;149261.59;5049181;28;20364;-76
2022/06/11 07:44:36;;;;;;;;;;;;;;;25.96;100.00;149239.69;5049920;28;19917;-75
2022/06/11 07:47:01;;;;;;;;;;;;;;;25.65;100.00;149161.28;5050321;28;20008;-76
2022/06/11 07:49:27;;;;;;;;;;;;;;;24.60;100.00;148900.34;5048931;28;19999;-76
2022/06/11 07:51:52;;;;;;;;;;;;;;;25.08;100.00;149019.84;5047662;28;20310;-76
2022/06/11 07:54:18;;;;;;;;;;;;;;;24.85;100.00;148962.03;5058076;28;19921;-79
2022/06/11 07:56:43;;;;;;;;;;;;;;;25.35;100.00;149086.72;5050233;28;19921;-77
2022/06/11 07:59:09;;;;;;;;;;;;;;;25.97;100.00;149242.28;5059963;28;19924;-77
2022/06/11 08:01:34;;;;;;;;;;;;;;;24.85;100.00;148962.03;5063239;28;19927;-78
2022/06/11 08:03:59;;;;;;;;;;;;;;;25.06;100.00;149016.00;5068949;28;20031;-77
2022/06/11 08:06:25;;;;;;;;;;;;;;;25.46;100.00;149115.00;5068211;28;19913;-77
2022/06/11 08:08:50;;;;;;;;;;;;;;;25.56;100.00;149140.72;5058853;28;19925;-76
2022/06/11 08:11:15;;;;;;;;;;;;;;;24.89;100.00;148973.59;5051197;28;19947;-75
2022/06/11 08:13:41;;;;;;;;;;;;;;;24.84;100.00;148959.44;5050306;28;20004;-78
2022/06/11 08:16:06;;;;;;;;;;;;;;;25.21;100.00;149051.97;5051238;28;19917;-76
2022/06/11 08:18:32;;;;;;;;;;;;;;;26.07;100.00;149268.06;5063335;28;19913;-77
2022/06/11 08:20:57;;;;;;;;;;;;;;;25.02;100.00;149004.44;5061768;28;20057;-79
2022/06/11 08:23:26;;;;;;;;;;;;;;;25.40;100.00;149099.56;5055155;28;19927;-79
2022/06/11 08:25:52;;;;;;;;;;;;;;;24.26;100.00;148814.25;5064290;28;19921;-79
2022/06/11 08:28:17;;;;;;;;;;;;;;;24.39;100.00;148847.63;5064534;28;20003;-81
2022/06/11 08:30:44;;;;;;;;;;;;;;;24.63;100.00;148908.06;5056516;28;20020;-76
2022/06/11 08:33:09;;;;;;;;;;;;;;;25.03;100.00;149008.28;5049023;28;19923;-77
2022/06/11 08:35:35;;;;;;;;;;;;;;;25.37;100.00;149093.16;5053563;28;20355;-76
2022/06/11 08:38:01;;;;;;;;;;;;;;;25.54;100.00;149134.28;5049920;28;19943;-76
2022/06/11 08:40:26;;;;;;;;;;;;;;;24.62;100.00;148904.22;5048375;28;19948;-77
2022/06/11 08:42:59;;;;;;;;;;;;;;;23.61;100.00;148652.38;5048357;28;20331;-75
2022/06/11 08:45:35;;;;;;;;;;;;;;;23.82;100.00;148706.31;5051309;28;19927;-75
2022/06/11 08:48:04;;;;;;;;;;;;;;;23.53;100.00;148633.13;5057822;28;19916;-75
2022/06/11 08:50:36;;;;;;;;;;;;;;;23.56;100.00;148640.84;5085994;28;20037;-75
2022/06/11 08:53:02;;;;;;;;;;;;;;;23.53;100.00;148633.13;5068106;28;20066;-76
2022/06/11 08:55:32;;;;;;;;;;;;;;;22.97;100.00;148491.91;5069038;28;20003;-77
2022/06/11 08:57:57;;;;;;;;;;;;;;;23.29;100.00;148574.09;5065138;28;21305;-72
2022/06/11 09:00:39;;;;;;;;;;;;;;;23.26;100.00;148566.41;5063030;28;19920;-76
2022/06/11 09:03:10;;;;;;;;;;;;;;;23.38;100.00;148594.63;5066531;28;20540;-75
2022/06/11 09:05:38;;;;;;;;;;;;;;;23.12;100.00;148530.47;5053625;28;19917;-77
2022/06/11 09:08:03;;;;;;;;;;;;;;;23.41;100.00;148602.31;5049495;28;19921;-78
2022/06/11 09:10:47;;;;;;;;;;;;;;;24.12;100.00;148780.84;5049278;28;20273;-74
2022/06/11 09:13:15;;;;;;;;;;;;;;;24.61;100.00;148902.94;5048372;28;20377;-77
2022/06/11 09:15:53;;;;;;;;;;;;;;;24.33;100.00;148832.19;5064764;28;19953;-75
2022/06/11 09:18:28;;;;;;;;;;;;;;;23.54;100.00;148635.72;5067560;28;20552;-80
2022/06/11 09:21:12;;;;;;;;;;;;;;;23.77;100.00;148693.50;5051538;28;20015;-74
2022/06/11 09:23:43;;;;;;;;;;;;;;;24.76;100.00;148938.91;5052294;28;19917;-75
2022/06/11 09:26:17;;;;;;;;;;;;;;;25.48;100.00;149120.16;5051868;28;19932;-74
2022/06/11 09:29:11;;;;;;;;;;;;;;;25.30;100.00;149073.88;5052048;28;20007;-73
2022/06/11 09:31:50;;;;;;;;;;;;;;;25.42;100.00;149106.00;5016166;28;20628;-76
2022/06/11 09:34:21;;;;;;;;;;;;;;;26.57;100.00;149391.47;5051945;28;19924;-74
2022/06/11 09:36:56;;;;;;;;;;;;;;;25.46;100.00;149115.00;5053496;28;20537;-76
2022/06/11 09:39:31;;;;;;;;;;;;;;;24.07;100.00;148766.75;5035490;28;19921;-75
2022/06/11 09:41:56;;;;;;;;;;;;;;;24.91;100.00;148978.72;5034920;28;19977;-75
2022/06/11 09:44:42;;;;;;;;;;;;;;;26.00;100.00;149248.75;5040619;28;22217;-77
2022/06/11 09:47:16;;;;;;;;;;;;;;;26.04;100.00;149259.03;5056191;28;19917;-75
2022/06/11 09:49:54;;;;;;;;;;;;;;;25.87;100.00;149217.84;5057215;28;19939;-77
2022/06/11 09:52:26;;;;;;;;;;;;;;;25.65;100.00;149162.53;5054207;28;20000;-79
2022/06/11 09:54:53;;;;;;;;;;;;;;;24.91;100.00;148977.44;5052189;28;19966;-76
2022/06/11 09:57:28;;;;;;;;;;;;;;;24.98;100.00;148994.13;5056118;28;19924;-76
2022/06/11 10:00:03;;;;;;;;;;;;;;;24.49;100.00;148873.31;5055547;28;20384;-75
2022/06/11 10:05:01;;;;;;;;;;;;;;;24.57;100.00;148891.34;5064935;28;19994;-76
2022/06/11 10:07:37;;;;;;;;;;;;;;;24.66;100.00;148914.50;5057959;28;20351;-75
2022/06/11 10:10:10;;;;;;;;;;;;;;;24.77;100.00;148941.50;5064923;28;19927;-74
2022/06/11 10:12:55;;;;;;;;;;;;;;;24.79;100.00;148946.59;5055378;28;19916;-80
2022/06/11 10:15:23;;;;;;;;;;;;;;;25.06;100.00;149016.00;5055653;28;19959;-79
2022/06/11 10:18:10;;;;;;;;;;;;;;;24.47;100.00;148866.88;5054519;28;19951;-78
2022/06/11 10:20:42;;;;;;;;;;;;;;;24.44;100.00;148859.19;5054936;28;20247;-78
2022/06/11 10:23:10;;;;;;;;;;;;;;;24.38;100.00;148846.34;5054110;28;20381;-77
2022/06/11 10:25:38;;;;;;;;;;;;;;;24.25;100.00;148812.94;5055097;28;19912;-79
2022/06/11 10:28:21;;;;;;;;;;;;;;;24.71;100.00;148928.59;5073053;28;20356;-76
2022/06/11 10:30:54;;;;;;;;;;;;;;;24.90;100.00;148974.84;5053904;28;19947;-76
2022/06/11 10:33:23;;;;;;;;;;;;;;;24.75;100.00;148937.63;5054307;28;19970;-77
2022/06/11 10:35:53;;;;;;;;;;;;;;;25.05;100.00;149012.16;5055244;28;19913;-77
2022/06/11 10:38:36;;;;;;;;;;;;;;;25.03;100.00;149008.28;5050961;28;19921;-75
2022/06/11 10:41:03;;;;;;;;;;;;;;;25.23;100.00;149058.41;5051729;28;19920;-79
2022/06/11 10:43:33;;;;;;;;;;;;;;;24.53;100.00;148882.31;5051844;28;19917;-78
2022/06/11 10:46:00;;;;;;;;;;;;;;;24.16;100.00;148789.81;5051915;28;20403;-78
2022/06/11 10:48:29;;;;;;;;;;;;;;;24.48;100.00;148869.47;5051700;28;19921;-80
2022/06/11 10:50:54;;;;;;;;;;;;;;;24.17;100.00;148792.41;5051681;28;20423;-79
2022/06/11 10:53:29;;;;;;;;;;;;;;;24.04;100.00;148760.31;5051286;28;19917;-79
2022/06/11 10:55:58;;;;;;;;;;;;;;;23.24;100.00;148559.97;5051392;28;19921;-75
2022/06/11 10:58:28;;;;;;;;;;;;;;;22.85;100.00;148463.66;5049561;28;19948;-73
2022/06/11 11:00:55;;;;;;;;;;;;;;;22.90;100.00;148476.50;5050587;28;20008;-74
2022/06/11 11:03:29;;;;;;;;;;;;;;;22.89;100.00;148473.94;5050032;28;20013;-73
2022/06/11 11:06:03;;;;;;;;;;;;;;;23.04;100.00;148509.84;5049959;28;20389;-77
2022/06/11 11:08:28;;;;;;;;;;;;;;;23.86;100.00;148715.34;5050433;28;19916;-73
2022/06/11 11:10:54;;;;;;;;;;;;;;;24.11;100.00;148777.00;5050514;28;19928;-76
2022/06/11 11:13:24;;;;;;;;;;;;;;;24.19;100.00;148797.53;5049384;28;19916;-74
2022/06/11 11:16:19;;;;;;;;;;;;;;;23.93;100.00;148732.06;5049940;28;19921;-73
2022/06/11 11:18:45;;;;;;;;;;;;;;;24.05;100.00;148761.56;5049273;28;19917;-73
2022/06/11 11:21:18;;;;;;;;;;;;;;;24.16;100.00;148789.81;5050018;28;19923;-72
2022/06/11 11:23:46;;;;;;;;;;;;;;;24.12;100.00;148780.84;5049809;28;20282;-74
2022/06/11 11:26:18;;;;;;;;;;;;;;;24.28;100.00;148819.38;5049502;28;20469;-76
2022/06/11 11:28:55;;;;;;;;;;;;;;;24.43;100.00;148857.91;5051117;28;20372;-74
2022/06/11 11:31:22;;;;;;;;;;;;;;;24.28;100.00;148820.66;5050470;28;19924;-75
2022/06/11 11:34:06;;;;;;;;;;;;;;;24.86;100.00;148964.56;5048410;28;20460;-73
2022/06/11 11:36:32;;;;;;;;;;;;;;;24.01;100.00;148752.59;5049899;28;19959;-75
2022/06/11 11:39:12;;;;;;;;;;;;;;;23.70;100.00;148674.25;5049641;28;20010;-77
2022/06/11 11:41:46;;;;;;;;;;;;;;;24.09;100.00;148773.13;5039884;28;20023;-74
2022/06/11 11:44:21;;;;;;;;;;;;;;;24.19;100.00;148797.53;5050710;28;19919;-75
2022/06/11 11:46:50;;;;;;;;;;;;;;;23.78;100.00;148696.03;5047680;28;19921;-76
2022/06/11 11:49:19;;;;;;;;;;;;;;;23.94;100.00;148735.91;5062972;28;19916;-74
2022/06/11 11:51:45;;;;;;;;;;;;;;;23.89;100.00;148723.06;5052236;28;19917;-75
2022/06/11 11:54:14;;;;;;;;;;;;;;;23.50;100.00;148625.44;5065411;28;19943;-73
2022/06/11 11:56:41;;;;;;;;;;;;;;;23.92;100.00;148730.75;5059823;28;19974;-74
2022/06/11 11:59:12;;;;;;;;;;;;;;;23.80;100.00;148701.19;5061715;28;19924;-75
2022/06/11 12:01:38;;;;;;;;;;;;;;;24.25;100.00;148812.94;5051652;28;20285;-77
2022/06/11 12:04:06;;;;;;;;;;;;;;;24.07;100.00;148768.00;5064878;28;19917;-75
2022/06/11 12:06:52;;;;;;;;;;;;;;;24.35;100.00;148838.63;5058100;28;19917;-74
2022/06/11 12:09:21;;;;;;;;;;;;;;;23.91;100.00;148728.22;5053158;28;19923;-75
2022/06/11 12:11:58;;;;;;;;;;;;;;;23.57;100.00;148643.41;5049045;28;20026;-76
2022/06/11 12:14:33;;;;;;;;;;;;;;;23.03;100.00;148508.59;5049273;28;19917;-77
2022/06/11 12:17:02;;;;;;;;;;;;;;;23.70;100.00;148674.25;5048267;28;19924;-76
2022/06/11 12:19:30;;;;;;;;;;;;;;;23.51;100.00;148626.69;5048789;28;19916;-77
2022/06/11 12:22:03;;;;;;;;;;;;;;;23.42;100.00;148604.91;5049228;28;20015;-74
2022/06/11 12:24:41;;;;;;;;;;;;;;;23.95;100.00;148738.47;5048736;28;19917;-79
2022/06/11 12:27:12;;;;;;;;;;;;;;;23.49;100.00;148622.84;5046158;28;19995;-77
2022/06/11 12:29:41;;;;;;;;;;;;;;;23.61;100.00;148653.66;5047900;28;19913;-75
2022/06/11 12:32:16;;;;;;;;;;;;;;;23.65;100.00;148662.69;5048739;28;20032;-76
2022/06/11 12:34:41;;;;;;;;;;;;;;;23.05;100.00;148512.44;5048861;28;19923;-74
2022/06/11 12:37:06;;;;;;;;;;;;;;;23.48;100.00;148621.56;5048662;28;20011;-74
2022/06/11 12:39:31;;;;;;;;;;;;;;;23.14;100.00;148534.31;5049178;28;19916;-77